sensor_id;sensor_type;location;lat;lon;timestamp;temperature;humidity
5172;DHT22;2605;49.770;9.868;2022-12-07T00:01:24;1.50;99.90
5172;DHT22;2605;49.770;9.868;2022-12-07T00:03:52;1.60;99.90
5172;DHT22;2605;49.770;9.868;2022-12-07T00:06:18;1.60;99.90
5172;DHT22;2605;49.770;9.868;2022-12-07T00:08:44;1.60;99.90
5172;DHT22;2605;49.770;9.868;2022-12-07T00:11:16;1.60;99.90
5172;DHT22;2605;49.770;9.868;2022-12-07T00:13:43;1.60;99.90
5172;DHT22;2605;49.770;9.868;2022-12-07T00:16:19;1.60;99.90
5172;DHT22;2605;49.770;9.868;2022-12-07T00:18:45;1.60;99.90
5172;DHT22;2605;49.770;9.868;2022-12-07T00:21:20;1.60;99.90
5172;DHT22;2605;49.770;9.868;2022-12-07T00:23:48;1.70;99.90
5172;DHT22;2605;49.770;9.868;2022-12-07T00:26:22;1.70;99.90
5172;DHT22;2605;49.770;9.868;2022-12-07T00:28:54;1.70;99.90
5172;DHT22;2605;49.770;9.868;2022-12-07T00:31:23;1.70;99.90
5172;DHT22;2605;49.770;9.868;2022-12-07T00:33:49;1.60;99.90
5172;DHT22;2605;49.770;9.868;2022-12-07T00:36:17;1.60;99.90
5172;DHT22;2605;49.770;9.868;2022-12-07T00:38:43;1.60;99.90
5172;DHT22;2605;49.770;9.868;2022-12-07T00:41:14;1.70;99.90
5172;DHT22;2605;49.770;9.868;2022-12-07T00:43:41;1.70;99.90
5172;DHT22;2605;49.770;9.868;2022-12-07T00:46:07;1.80;99.90
5172;DHT22;2605;49.770;9.868;2022-12-07T00:48:33;1.70;99.90
5172;DHT22;2605;49.770;9.868;2022-12-07T00:50:59;1.70;99.90
5172;DHT22;2605;49.770;9.868;2022-12-07T00:53:25;1.70;99.90
5172;DHT22;2605;49.770;9.868;2022-12-07T00:55:51;1.80;99.90
5172;DHT22;2605;49.770;9.868;2022-12-07T00:58:18;1.80;99.90
5172;DHT22;2605;49.770;9.868;2022-12-07T01:00:44;1.90;99.90
5172;DHT22;2605;49.770;9.868;2022-12-07T01:03:14;1.90;99.90
5172;DHT22;2605;49.770;9.868;2022-12-07T01:05:40;2.00;99.90
5172;DHT22;2605;49.770;9.868;2022-12-07T01:08:13;2.00;99.90
5172;DHT22;2605;49.770;9.868;2022-12-07T01:10:39;2.00;99.90
5172;DHT22;2605;49.770;9.868;2022-12-07T01:13:04;2.10;99.90
5172;DHT22;2605;49.770;9.868;2022-12-07T01:15:30;2.10;99.90
5172;DHT22;2605;49.770;9.868;2022-12-07T01:17:55;2.10;99.90
5172;DHT22;2605;49.770;9.868;2022-12-07T01:20:21;2.00;99.90
5172;DHT22;2605;49.770;9.868;2022-12-07T01:22:46;2.00;99.90
5172;DHT22;2605;49.770;9.868;2022-12-07T01:25:12;2.00;99.90
5172;DHT22;2605;49.770;9.868;2022-12-07T01:27:38;2.00;99.90
5172;DHT22;2605;49.770;9.868;2022-12-07T01:30:05;2.00;99.90
5172;DHT22;2605;49.770;9.868;2022-12-07T01:32:31;2.00;99.90
5172;DHT22;2605;49.770;9.868;2022-12-07T01:34:57;2.10;99.90
5172;DHT22;2605;49.770;9.868;2022-12-07T01:37:23;2.10;99.90
5172;DHT22;2605;49.770;9.868;2022-12-07T01:39:49;2.10;99.90
5172;DHT22;2605;49.770;9.868;2022-12-07T01:42:15;1.90;99.90
5172;DHT22;2605;49.770;9.868;2022-12-07T01:48:01;1.90;99.90
5172;DHT22;2605;49.770;9.868;2022-12-07T01:50:28;1.80;99.90
5172;DHT22;2605;49.770;9.868;2022-12-07T01:52:58;1.70;99.90
5172;DHT22;2605;49.770;9.868;2022-12-07T01:55:24;1.80;99.90
5172;DHT22;2605;49.770;9.868;2022-12-07T01:57:52;1.90;99.90
5172;DHT22;2605;49.770;9.868;2022-12-07T02:00:19;1.90;99.90
5172;DHT22;2605;49.770;9.868;2022-12-07T02:05:19;1.90;99.90
5172;DHT22;2605;49.770;9.868;2022-12-07T02:07:47;1.90;99.90
5172;DHT22;2605;49.770;9.868;2022-12-07T02:12:43;1.80;99.90
5172;DHT22;2605;49.770;9.868;2022-12-07T02:15:10;1.80;99.90
5172;DHT22;2605;49.770;9.868;2022-12-07T02:17:50;1.80;99.90
5172;DHT22;2605;49.770;9.868;2022-12-07T02:23:50;1.80;99.90
5172;DHT22;2605;49.770;9.868;2022-12-07T02:29:25;1.90;99.90
5172;DHT22;2605;49.770;9.868;2022-12-07T02:31:55;1.90;99.90
5172;DHT22;2605;49.770;9.868;2022-12-07T02:34:42;1.90;99.90
5172;DHT22;2605;49.770;9.868;2022-12-07T02:37:17;1.80;99.90
5172;DHT22;2605;49.770;9.868;2022-12-07T02:39:57;1.80;99.90
5172;DHT22;2605;49.770;9.868;2022-12-07T02:42:37;1.90;99.90
5172;DHT22;2605;49.770;9.868;2022-12-07T02:45:05;1.90;99.90
5172;DHT22;2605;49.770;9.868;2022-12-07T02:47:33;1.80;99.90
5172;DHT22;2605;49.770;9.868;2022-12-07T02:49:59;1.80;99.90
5172;DHT22;2605;49.770;9.868;2022-12-07T02:52:25;1.80;99.90
5172;DHT22;2605;49.770;9.868;2022-12-07T02:54:50;1.80;99.90
5172;DHT22;2605;49.770;9.868;2022-12-07T02:57:42;1.90;99.90
5172;DHT22;2605;49.770;9.868;2022-12-07T03:00:14;1.90;99.90
5172;DHT22;2605;49.770;9.868;2022-12-07T03:02:47;1.90;99.90
5172;DHT22;2605;49.770;9.868;2022-12-07T03:08:00;1.90;99.90
5172;DHT22;2605;49.770;9.868;2022-12-07T03:10:30;1.90;99.90
5172;DHT22;2605;49.770;9.868;2022-12-07T03:13:22;1.90;99.90
5172;DHT22;2605;49.770;9.868;2022-12-07T03:16:14;1.90;99.90
5172;DHT22;2605;49.770;9.868;2022-12-07T03:21:17;1.80;99.90
5172;DHT22;2605;49.770;9.868;2022-12-07T03:23:46;1.80;99.90
5172;DHT22;2605;49.770;9.868;2022-12-07T03:26:15;1.80;99.90
5172;DHT22;2605;49.770;9.868;2022-12-07T03:28:45;1.80;99.90
5172;DHT22;2605;49.770;9.868;2022-12-07T03:31:27;1.90;99.90
5172;DHT22;2605;49.770;9.868;2022-12-07T03:34:20;1.90;99.90
5172;DHT22;2605;49.770;9.868;2022-12-07T03:36:55;1.90;99.90
5172;DHT22;2605;49.770;9.868;2022-12-07T03:39:37;1.90;99.90
5172;DHT22;2605;49.770;9.868;2022-12-07T03:42:05;1.80;99.90
5172;DHT22;2605;49.770;9.868;2022-12-07T03:44:33;1.80;99.90
5172;DHT22;2605;49.770;9.868;2022-12-07T03:47:07;1.80;99.90
5172;DHT22;2605;49.770;9.868;2022-12-07T03:57:09;1.80;99.90
5172;DHT22;2605;49.770;9.868;2022-12-07T03:59:37;1.80;99.90
5172;DHT22;2605;49.770;9.868;2022-12-07T04:02:06;1.90;99.90
5172;DHT22;2605;49.770;9.868;2022-12-07T04:04:32;1.90;99.90
5172;DHT22;2605;49.770;9.868;2022-12-07T04:06:58;1.90;99.90
5172;DHT22;2605;49.770;9.868;2022-12-07T04:09:24;1.90;99.90
5172;DHT22;2605;49.770;9.868;2022-12-07T04:11:49;1.90;99.90
5172;DHT22;2605;49.770;9.868;2022-12-07T04:14:15;1.90;99.90
5172;DHT22;2605;49.770;9.868;2022-12-07T04:16:53;1.80;99.90
5172;DHT22;2605;49.770;9.868;2022-12-07T04:19:20;1.70;99.90
5172;DHT22;2605;49.770;9.868;2022-12-07T04:21:46;1.80;99.90
5172;DHT22;2605;49.770;9.868;2022-12-07T04:24:12;1.80;99.90
5172;DHT22;2605;49.770;9.868;2022-12-07T04:26:38;1.80;99.90
5172;DHT22;2605;49.770;9.868;2022-12-07T04:29:04;1.90;99.90
5172;DHT22;2605;49.770;9.868;2022-12-07T04:31:30;1.80;99.90
5172;DHT22;2605;49.770;9.868;2022-12-07T04:33:56;1.70;99.90
5172;DHT22;2605;49.770;9.868;2022-12-07T04:36:21;1.60;99.90
5172;DHT22;2605;49.770;9.868;2022-12-07T04:38:47;1.70;99.90
5172;DHT22;2605;49.770;9.868;2022-12-07T04:41:12;1.70;99.90
5172;DHT22;2605;49.770;9.868;2022-12-07T04:43:38;1.70;99.90
5172;DHT22;2605;49.770;9.868;2022-12-07T04:46:04;1.60;99.90
5172;DHT22;2605;49.770;9.868;2022-12-07T04:48:29;1.60;99.90
5172;DHT22;2605;49.770;9.868;2022-12-07T04:50:55;1.60;99.90
5172;DHT22;2605;49.770;9.868;2022-12-07T04:53:21;1.60;99.90
5172;DHT22;2605;49.770;9.868;2022-12-07T04:55:46;1.60;99.90
5172;DHT22;2605;49.770;9.868;2022-12-07T04:58:13;1.50;99.90
5172;DHT22;2605;49.770;9.868;2022-12-07T05:00:39;1.60;99.90
5172;DHT22;2605;49.770;9.868;2022-12-07T05:03:05;1.60;99.90
5172;DHT22;2605;49.770;9.868;2022-12-07T05:05:30;1.60;99.90
5172;DHT22;2605;49.770;9.868;2022-12-07T05:07:56;1.60;99.90
5172;DHT22;2605;49.770;9.868;2022-12-07T05:10:22;1.60;99.90
5172;DHT22;2605;49.770;9.868;2022-12-07T05:12:47;1.60;99.90
5172;DHT22;2605;49.770;9.868;2022-12-07T05:15:14;1.70;99.90
5172;DHT22;2605;49.770;9.868;2022-12-07T05:17:39;1.60;99.90
5172;DHT22;2605;49.770;9.868;2022-12-07T05:20:06;1.60;99.90
5172;DHT22;2605;49.770;9.868;2022-12-07T05:22:31;1.60;99.90
5172;DHT22;2605;49.770;9.868;2022-12-07T05:24:57;1.60;99.90
5172;DHT22;2605;49.770;9.868;2022-12-07T05:27:23;1.60;99.90
5172;DHT22;2605;49.770;9.868;2022-12-07T05:29:50;1.70;99.90
5172;DHT22;2605;49.770;9.868;2022-12-07T05:32:15;1.60;99.90
5172;DHT22;2605;49.770;9.868;2022-12-07T05:34:41;1.60;99.90
5172;DHT22;2605;49.770;9.868;2022-12-07T05:37:06;1.70;99.90
5172;DHT22;2605;49.770;9.868;2022-12-07T05:39:32;1.70;99.90
5172;DHT22;2605;49.770;9.868;2022-12-07T05:41:57;1.70;99.90
5172;DHT22;2605;49.770;9.868;2022-12-07T05:44:39;1.70;99.90
5172;DHT22;2605;49.770;9.868;2022-12-07T05:47:04;1.70;99.90
5172;DHT22;2605;49.770;9.868;2022-12-07T05:49:30;1.70;99.90
5172;DHT22;2605;49.770;9.868;2022-12-07T05:51:56;1.70;99.90
5172;DHT22;2605;49.770;9.868;2022-12-07T05:54:21;1.70;99.90
5172;DHT22;2605;49.770;9.868;2022-12-07T05:56:47;1.60;99.90
5172;DHT22;2605;49.770;9.868;2022-12-07T05:59:12;1.60;99.90
5172;DHT22;2605;49.770;9.868;2022-12-07T06:02:04;1.60;99.90
5172;DHT22;2605;49.770;9.868;2022-12-07T06:04:33;1.60;99.90
5172;DHT22;2605;49.770;9.868;2022-12-07T06:06:59;1.60;99.90
5172;DHT22;2605;49.770;9.868;2022-12-07T06:09:26;1.60;99.90
5172;DHT22;2605;49.770;9.868;2022-12-07T06:11:52;1.60;99.90
5172;DHT22;2605;49.770;9.868;2022-12-07T06:14:37;1.60;99.90
5172;DHT22;2605;49.770;9.868;2022-12-07T06:17:03;1.60;99.90
5172;DHT22;2605;49.770;9.868;2022-12-07T06:19:29;1.60;99.90
5172;DHT22;2605;49.770;9.868;2022-12-07T06:21:55;1.70;99.90
5172;DHT22;2605;49.770;9.868;2022-12-07T06:24:21;1.70;99.90
5172;DHT22;2605;49.770;9.868;2022-12-07T06:26:46;1.70;99.90
5172;DHT22;2605;49.770;9.868;2022-12-07T06:29:13;1.70;99.90
5172;DHT22;2605;49.770;9.868;2022-12-07T06:31:39;1.70;99.90
5172;DHT22;2605;49.770;9.868;2022-12-07T06:34:07;1.80;99.90
5172;DHT22;2605;49.770;9.868;2022-12-07T06:36:34;1.70;99.90
5172;DHT22;2605;49.770;9.868;2022-12-07T06:38:59;1.70;99.90
5172;DHT22;2605;49.770;9.868;2022-12-07T06:41:25;1.70;99.90
5172;DHT22;2605;49.770;9.868;2022-12-07T06:43:51;1.70;99.90
5172;DHT22;2605;49.770;9.868;2022-12-07T06:46:16;1.70;99.90
5172;DHT22;2605;49.770;9.868;2022-12-07T06:48:43;1.70;99.90
5172;DHT22;2605;49.770;9.868;2022-12-07T06:51:09;1.70;99.90
5172;DHT22;2605;49.770;9.868;2022-12-07T06:53:35;1.80;99.90
5172;DHT22;2605;49.770;9.868;2022-12-07T06:56:01;1.90;99.90
5172;DHT22;2605;49.770;9.868;2022-12-07T06:58:27;1.80;99.90
5172;DHT22;2605;49.770;9.868;2022-12-07T07:00:53;1.90;99.90
5172;DHT22;2605;49.770;9.868;2022-12-07T07:03:18;1.80;99.90
5172;DHT22;2605;49.770;9.868;2022-12-07T07:05:44;1.80;99.90
5172;DHT22;2605;49.770;9.868;2022-12-07T07:08:11;1.90;99.90
5172;DHT22;2605;49.770;9.868;2022-12-07T07:10:37;1.90;99.90
5172;DHT22;2605;49.770;9.868;2022-12-07T07:13:03;1.90;99.90
5172;DHT22;2605;49.770;9.868;2022-12-07T07:15:29;2.00;99.90
5172;DHT22;2605;49.770;9.868;2022-12-07T07:17:55;2.00;99.90
5172;DHT22;2605;49.770;9.868;2022-12-07T07:20:20;2.00;99.90
5172;DHT22;2605;49.770;9.868;2022-12-07T07:22:46;2.00;99.90
5172;DHT22;2605;49.770;9.868;2022-12-07T07:25:11;2.00;99.90
5172;DHT22;2605;49.770;9.868;2022-12-07T07:27:37;2.10;99.90
5172;DHT22;2605;49.770;9.868;2022-12-07T07:30:03;2.10;99.90
5172;DHT22;2605;49.770;9.868;2022-12-07T07:32:29;2.10;99.90
5172;DHT22;2605;49.770;9.868;2022-12-07T07:34:55;2.10;99.90
5172;DHT22;2605;49.770;9.868;2022-12-07T07:37:20;2.10;99.90
5172;DHT22;2605;49.770;9.868;2022-12-07T07:39:46;2.20;99.90
5172;DHT22;2605;49.770;9.868;2022-12-07T07:42:11;2.20;99.90
5172;DHT22;2605;49.770;9.868;2022-12-07T07:44:37;2.30;99.90
5172;DHT22;2605;49.770;9.868;2022-12-07T07:47:03;2.30;99.90
5172;DHT22;2605;49.770;9.868;2022-12-07T07:49:28;2.30;99.90
5172;DHT22;2605;49.770;9.868;2022-12-07T07:51:54;2.30;99.90
5172;DHT22;2605;49.770;9.868;2022-12-07T07:54:19;2.30;99.90
5172;DHT22;2605;49.770;9.868;2022-12-07T07:56:45;2.30;99.90
5172;DHT22;2605;49.770;9.868;2022-12-07T07:59:10;2.40;99.90
5172;DHT22;2605;49.770;9.868;2022-12-07T08:01:36;2.40;99.90
5172;DHT22;2605;49.770;9.868;2022-12-07T08:04:01;2.40;99.90
5172;DHT22;2605;49.770;9.868;2022-12-07T08:06:27;2.40;99.90
5172;DHT22;2605;49.770;9.868;2022-12-07T08:08:52;2.40;99.90
5172;DHT22;2605;49.770;9.868;2022-12-07T08:11:18;2.50;99.90
5172;DHT22;2605;49.770;9.868;2022-12-07T08:13:46;2.50;99.90
5172;DHT22;2605;49.770;9.868;2022-12-07T08:16:12;2.50;99.90
5172;DHT22;2605;49.770;9.868;2022-12-07T08:18:39;2.50;99.90
5172;DHT22;2605;49.770;9.868;2022-12-07T08:21:07;2.50;99.90
5172;DHT22;2605;49.770;9.868;2022-12-07T08:23:33;2.40;99.90
5172;DHT22;2605;49.770;9.868;2022-12-07T08:26:04;2.50;99.90
5172;DHT22;2605;49.770;9.868;2022-12-07T08:28:30;2.50;99.90
5172;DHT22;2605;49.770;9.868;2022-12-07T08:31:04;2.50;99.90
5172;DHT22;2605;49.770;9.868;2022-12-07T08:33:30;2.40;99.90
5172;DHT22;2605;49.770;9.868;2022-12-07T08:36:07;2.50;99.90
5172;DHT22;2605;49.770;9.868;2022-12-07T08:38:37;2.50;99.90
5172;DHT22;2605;49.770;9.868;2022-12-07T08:41:03;2.50;99.90
5172;DHT22;2605;49.770;9.868;2022-12-07T08:43:29;2.50;99.90
5172;DHT22;2605;49.770;9.868;2022-12-07T08:46:06;2.60;99.90
5172;DHT22;2605;49.770;9.868;2022-12-07T08:48:33;2.60;99.90
5172;DHT22;2605;49.770;9.868;2022-12-07T08:51:01;2.60;99.90
5172;DHT22;2605;49.770;9.868;2022-12-07T08:53:28;2.70;99.90
5172;DHT22;2605;49.770;9.868;2022-12-07T08:55:54;2.70;99.90
5172;DHT22;2605;49.770;9.868;2022-12-07T08:58:20;2.70;99.90
5172;DHT22;2605;49.770;9.868;2022-12-07T09:00:46;2.70;99.90
5172;DHT22;2605;49.770;9.868;2022-12-07T09:03:11;2.70;99.90
5172;DHT22;2605;49.770;9.868;2022-12-07T09:05:37;2.80;99.90
5172;DHT22;2605;49.770;9.868;2022-12-07T09:08:03;2.80;99.90
5172;DHT22;2605;49.770;9.868;2022-12-07T09:10:29;2.80;99.90
5172;DHT22;2605;49.770;9.868;2022-12-07T09:12:55;2.80;99.90
5172;DHT22;2605;49.770;9.868;2022-12-07T09:15:20;2.80;99.90
5172;DHT22;2605;49.770;9.868;2022-12-07T09:17:46;2.80;99.90
5172;DHT22;2605;49.770;9.868;2022-12-07T09:20:11;2.80;99.90
5172;DHT22;2605;49.770;9.868;2022-12-07T09:22:37;2.80;99.90
5172;DHT22;2605;49.770;9.868;2022-12-07T09:25:04;2.80;99.90
5172;DHT22;2605;49.770;9.868;2022-12-07T09:27:30;2.80;99.90
5172;DHT22;2605;49.770;9.868;2022-12-07T09:29:55;2.80;99.90
5172;DHT22;2605;49.770;9.868;2022-12-07T09:32:21;2.80;99.90
5172;DHT22;2605;49.770;9.868;2022-12-07T09:34:48;2.80;99.90
5172;DHT22;2605;49.770;9.868;2022-12-07T09:37:13;2.80;99.90
5172;DHT22;2605;49.770;9.868;2022-12-07T09:39:40;2.80;99.90
5172;DHT22;2605;49.770;9.868;2022-12-07T09:42:06;2.90;99.90
5172;DHT22;2605;49.770;9.868;2022-12-07T09:44:33;2.90;99.90
5172;DHT22;2605;49.770;9.868;2022-12-07T09:47:00;3.00;99.90
5172;DHT22;2605;49.770;9.868;2022-12-07T09:49:28;3.10;99.90
5172;DHT22;2605;49.770;9.868;2022-12-07T09:54:36;3.20;99.90
5172;DHT22;2605;49.770;9.868;2022-12-07T09:57:03;3.30;99.90
5172;DHT22;2605;49.770;9.868;2022-12-07T09:59:29;3.40;99.90
5172;DHT22;2605;49.770;9.868;2022-12-07T10:01:55;3.40;99.90
5172;DHT22;2605;49.770;9.868;2022-12-07T10:04:25;3.30;99.90
5172;DHT22;2605;49.770;9.868;2022-12-07T10:06:51;3.40;99.90
5172;DHT22;2605;49.770;9.868;2022-12-07T10:09:19;3.50;99.90
5172;DHT22;2605;49.770;9.868;2022-12-07T10:12:03;3.50;99.90
5172;DHT22;2605;49.770;9.868;2022-12-07T10:14:32;3.80;99.90
5172;DHT22;2605;49.770;9.868;2022-12-07T10:16:57;3.70;99.90
5172;DHT22;2605;49.770;9.868;2022-12-07T10:19:32;3.60;99.90
5172;DHT22;2605;49.770;9.868;2022-12-07T10:22:12;3.60;99.90
5172;DHT22;2605;49.770;9.868;2022-12-07T10:24:40;3.50;99.90
5172;DHT22;2605;49.770;9.868;2022-12-07T10:29:48;3.40;99.90
5172;DHT22;2605;49.770;9.868;2022-12-07T10:34:39;3.60;99.90
5172;DHT22;2605;49.770;9.868;2022-12-07T10:45:07;3.60;99.90
5172;DHT22;2605;49.770;9.868;2022-12-07T10:47:38;3.70;99.90
5172;DHT22;2605;49.770;9.868;2022-12-07T11:01:30;3.60;99.90
5172;DHT22;2605;49.770;9.868;2022-12-07T11:14:58;3.60;99.90
5172;DHT22;2605;49.770;9.868;2022-12-07T11:17:36;3.70;99.90
5172;DHT22;2605;49.770;9.868;2022-12-07T11:23:12;3.70;99.90
5172;DHT22;2605;49.770;9.868;2022-12-07T11:36:43;3.80;99.90
5172;DHT22;2605;49.770;9.868;2022-12-07T11:39:31;3.90;99.90
5172;DHT22;2605;49.770;9.868;2022-12-07T11:42:25;3.90;99.90
5172;DHT22;2605;49.770;9.868;2022-12-07T11:44:58;4.00;99.90
5172;DHT22;2605;49.770;9.868;2022-12-07T11:55:57;4.00;99.90
5172;DHT22;2605;49.770;9.868;2022-12-07T11:58:42;4.10;99.90
5172;DHT22;2605;49.770;9.868;2022-12-07T12:06:42;4.40;99.90
5172;DHT22;2605;49.770;9.868;2022-12-07T12:18:00;4.50;99.90
5172;DHT22;2605;49.770;9.868;2022-12-07T12:20:57;4.40;99.90
5172;DHT22;2605;49.770;9.868;2022-12-07T12:23:36;4.40;99.90
5172;DHT22;2605;49.770;9.868;2022-12-07T12:26:06;4.30;99.90
5172;DHT22;2605;49.770;9.868;2022-12-07T12:31:36;4.30;99.90
5172;DHT22;2605;49.770;9.868;2022-12-07T12:34:41;4.40;99.90
5172;DHT22;2605;49.770;9.868;2022-12-07T12:42:58;4.30;99.90
5172;DHT22;2605;49.770;9.868;2022-12-07T12:45:28;4.20;99.90
5172;DHT22;2605;49.770;9.868;2022-12-07T12:48:07;4.20;99.90
5172;DHT22;2605;49.770;9.868;2022-12-07T12:54:10;4.00;99.90
5172;DHT22;2605;49.770;9.868;2022-12-07T12:59:30;3.60;99.90
5172;DHT22;2605;49.770;9.868;2022-12-07T13:10:39;3.50;99.90
5172;DHT22;2605;49.770;9.868;2022-12-07T13:15:42;3.40;99.90
5172;DHT22;2605;49.770;9.868;2022-12-07T13:29:16;3.40;99.90
5172;DHT22;2605;49.770;9.868;2022-12-07T13:31:50;3.40;99.90
5172;DHT22;2605;49.770;9.868;2022-12-07T13:34:39;3.40;99.90
5172;DHT22;2605;49.770;9.868;2022-12-07T13:39:33;3.50;99.90
5172;DHT22;2605;49.770;9.868;2022-12-07T13:42:11;3.60;99.90
5172;DHT22;2605;49.770;9.868;2022-12-07T13:44:41;3.60;99.90
5172;DHT22;2605;49.770;9.868;2022-12-07T13:47:15;3.60;99.90
5172;DHT22;2605;49.770;9.868;2022-12-07T13:49:51;3.70;99.90
5172;DHT22;2605;49.770;9.868;2022-12-07T13:52:25;3.70;99.90
5172;DHT22;2605;49.770;9.868;2022-12-07T13:55:06;3.80;99.90
5172;DHT22;2605;49.770;9.868;2022-12-07T13:57:40;3.80;99.90
5172;DHT22;2605;49.770;9.868;2022-12-07T14:00:21;3.90;99.90
5172;DHT22;2605;49.770;9.868;2022-12-07T14:02:59;3.90;99.90
5172;DHT22;2605;49.770;9.868;2022-12-07T14:05:26;3.90;99.90
5172;DHT22;2605;49.770;9.868;2022-12-07T14:08:01;4.00;99.90
5172;DHT22;2605;49.770;9.868;2022-12-07T14:13:35;4.00;99.90
5172;DHT22;2605;49.770;9.868;2022-12-07T14:16:24;3.90;99.90
5172;DHT22;2605;49.770;9.868;2022-12-07T14:18:51;3.80;99.90
5172;DHT22;2605;49.770;9.868;2022-12-07T14:21:19;3.80;99.90
5172;DHT22;2605;49.770;9.868;2022-12-07T14:23:45;3.80;99.90
5172;DHT22;2605;49.770;9.868;2022-12-07T14:26:16;3.70;99.90
5172;DHT22;2605;49.770;9.868;2022-12-07T14:28:44;3.50;99.90
5172;DHT22;2605;49.770;9.868;2022-12-07T14:31:23;3.40;99.90
5172;DHT22;2605;49.770;9.868;2022-12-07T14:33:49;3.30;99.90
5172;DHT22;2605;49.770;9.868;2022-12-07T14:36:15;3.30;99.90
5172;DHT22;2605;49.770;9.868;2022-12-07T14:38:41;3.30;99.90
5172;DHT22;2605;49.770;9.868;2022-12-07T14:41:13;3.30;99.90
5172;DHT22;2605;49.770;9.868;2022-12-07T14:43:58;3.20;99.90
5172;DHT22;2605;49.770;9.868;2022-12-07T14:46:23;3.20;99.90
5172;DHT22;2605;49.770;9.868;2022-12-07T14:48:49;3.20;99.90
5172;DHT22;2605;49.770;9.868;2022-12-07T14:51:15;3.20;99.90
5172;DHT22;2605;49.770;9.868;2022-12-07T14:53:46;3.20;99.90
5172;DHT22;2605;49.770;9.868;2022-12-07T14:56:13;3.20;99.90
5172;DHT22;2605;49.770;9.868;2022-12-07T14:58:39;3.10;99.90
5172;DHT22;2605;49.770;9.868;2022-12-07T15:01:05;3.10;99.90
5172;DHT22;2605;49.770;9.868;2022-12-07T15:03:33;3.00;99.90
5172;DHT22;2605;49.770;9.868;2022-12-07T15:06:00;3.00;99.90
5172;DHT22;2605;49.770;9.868;2022-12-07T15:08:26;2.90;99.90
5172;DHT22;2605;49.770;9.868;2022-12-07T15:10:51;2.80;99.90
5172;DHT22;2605;49.770;9.868;2022-12-07T15:13:17;2.70;99.90
5172;DHT22;2605;49.770;9.868;2022-12-07T15:16:01;2.70;99.90
5172;DHT22;2605;49.770;9.868;2022-12-07T15:18:27;2.60;99.90
5172;DHT22;2605;49.770;9.868;2022-12-07T15:20:53;2.50;99.90
5172;DHT22;2605;49.770;9.868;2022-12-07T15:23:18;2.50;99.90
5172;DHT22;2605;49.770;9.868;2022-12-07T15:25:45;2.50;99.90
5172;DHT22;2605;49.770;9.868;2022-12-07T15:28:11;2.50;99.90
5172;DHT22;2605;49.770;9.868;2022-12-07T15:30:38;2.50;99.90
5172;DHT22;2605;49.770;9.868;2022-12-07T15:33:03;2.50;99.90
5172;DHT22;2605;49.770;9.868;2022-12-07T15:35:29;2.50;99.90
5172;DHT22;2605;49.770;9.868;2022-12-07T15:37:54;2.60;99.90
5172;DHT22;2605;49.770;9.868;2022-12-07T15:40:20;2.60;99.90
5172;DHT22;2605;49.770;9.868;2022-12-07T15:42:46;2.60;99.90
5172;DHT22;2605;49.770;9.868;2022-12-07T15:45:11;2.60;99.90
5172;DHT22;2605;49.770;9.868;2022-12-07T15:47:40;2.60;99.90
5172;DHT22;2605;49.770;9.868;2022-12-07T15:50:09;2.60;99.90
5172;DHT22;2605;49.770;9.868;2022-12-07T15:52:35;2.60;99.90
5172;DHT22;2605;49.770;9.868;2022-12-07T15:55:02;2.70;99.90
5172;DHT22;2605;49.770;9.868;2022-12-07T15:57:35;2.70;99.90
5172;DHT22;2605;49.770;9.868;2022-12-07T16:00:03;2.80;99.90
5172;DHT22;2605;49.770;9.868;2022-12-07T16:02:29;2.80;99.90
5172;DHT22;2605;49.770;9.868;2022-12-07T16:04:54;2.80;99.90
5172;DHT22;2605;49.770;9.868;2022-12-07T16:07:20;2.80;99.90
5172;DHT22;2605;49.770;9.868;2022-12-07T16:09:46;2.80;99.90
5172;DHT22;2605;49.770;9.868;2022-12-07T16:12:12;2.80;99.90
5172;DHT22;2605;49.770;9.868;2022-12-07T16:14:38;2.10;99.90
5172;DHT22;2605;49.770;9.868;2022-12-07T16:17:05;1.50;99.90
5172;DHT22;2605;49.770;9.868;2022-12-07T16:19:32;1.20;99.90
5172;DHT22;2605;49.770;9.868;2022-12-07T16:21:58;1.00;99.90
5172;DHT22;2605;49.770;9.868;2022-12-07T16:24:24;1.00;99.90
5172;DHT22;2605;49.770;9.868;2022-12-07T16:26:50;0.90;99.90
5172;DHT22;2605;49.770;9.868;2022-12-07T16:29:16;1.00;99.90
5172;DHT22;2605;49.770;9.868;2022-12-07T16:31:42;1.00;99.90
5172;DHT22;2605;49.770;9.868;2022-12-07T16:34:09;1.10;99.90
5172;DHT22;2605;49.770;9.868;2022-12-07T16:36:34;1.20;99.90
5172;DHT22;2605;49.770;9.868;2022-12-07T16:39:00;1.30;99.90
5172;DHT22;2605;49.770;9.868;2022-12-07T16:41:26;1.30;99.90
5172;DHT22;2605;49.770;9.868;2022-12-07T16:43:52;1.40;99.90
5172;DHT22;2605;49.770;9.868;2022-12-07T16:46:18;1.50;99.90
5172;DHT22;2605;49.770;9.868;2022-12-07T16:48:43;1.50;99.90
5172;DHT22;2605;49.770;9.868;2022-12-07T16:51:11;1.60;99.90
5172;DHT22;2605;49.770;9.868;2022-12-07T16:53:39;1.60;99.90
5172;DHT22;2605;49.770;9.868;2022-12-07T16:56:13;1.60;99.90
5172;DHT22;2605;49.770;9.868;2022-12-07T16:58:40;1.60;99.90
5172;DHT22;2605;49.770;9.868;2022-12-07T17:01:13;1.60;99.90
5172;DHT22;2605;49.770;9.868;2022-12-07T17:03:39;1.60;99.90
5172;DHT22;2605;49.770;9.868;2022-12-07T17:06:20;1.60;99.90
5172;DHT22;2605;49.770;9.868;2022-12-07T17:08:47;1.60;99.90
5172;DHT22;2605;49.770;9.868;2022-12-07T17:11:16;1.70;99.90
5172;DHT22;2605;49.770;9.868;2022-12-07T17:13:42;1.80;99.90
5172;DHT22;2605;49.770;9.868;2022-12-07T17:16:26;1.90;99.90
5172;DHT22;2605;49.770;9.868;2022-12-07T17:18:51;1.80;99.90
5172;DHT22;2605;49.770;9.868;2022-12-07T17:21:17;1.90;99.90
5172;DHT22;2605;49.770;9.868;2022-12-07T17:23:46;1.90;99.90
5172;DHT22;2605;49.770;9.868;2022-12-07T17:26:15;2.00;99.90
5172;DHT22;2605;49.770;9.868;2022-12-07T17:28:41;2.00;99.90
5172;DHT22;2605;49.770;9.868;2022-12-07T17:31:08;2.10;99.90
5172;DHT22;2605;49.770;9.868;2022-12-07T17:33:35;2.10;99.90
5172;DHT22;2605;49.770;9.868;2022-12-07T17:36:08;2.10;99.90
5172;DHT22;2605;49.770;9.868;2022-12-07T17:38:34;2.20;99.90
5172;DHT22;2605;49.770;9.868;2022-12-07T17:40:59;2.20;99.90
5172;DHT22;2605;49.770;9.868;2022-12-07T17:43:25;2.20;99.90
5172;DHT22;2605;49.770;9.868;2022-12-07T17:45:50;2.30;99.90
5172;DHT22;2605;49.770;9.868;2022-12-07T17:48:16;2.30;99.90
5172;DHT22;2605;49.770;9.868;2022-12-07T17:50:41;2.30;99.90
5172;DHT22;2605;49.770;9.868;2022-12-07T17:53:25;2.30;99.90
5172;DHT22;2605;49.770;9.868;2022-12-07T17:55:52;2.40;99.90
5172;DHT22;2605;49.770;9.868;2022-12-07T17:58:18;2.40;99.90
5172;DHT22;2605;49.770;9.868;2022-12-07T18:00:44;2.40;99.90
5172;DHT22;2605;49.770;9.868;2022-12-07T18:03:09;2.40;99.90
5172;DHT22;2605;49.770;9.868;2022-12-07T18:05:36;2.40;99.90
5172;DHT22;2605;49.770;9.868;2022-12-07T18:08:02;2.40;99.90
5172;DHT22;2605;49.770;9.868;2022-12-07T18:10:28;2.40;99.90
5172;DHT22;2605;49.770;9.868;2022-12-07T18:12:53;2.30;99.90
5172;DHT22;2605;49.770;9.868;2022-12-07T18:15:39;2.30;99.90
5172;DHT22;2605;49.770;9.868;2022-12-07T18:18:04;2.20;99.90
5172;DHT22;2605;49.770;9.868;2022-12-07T18:20:30;2.20;99.90
5172;DHT22;2605;49.770;9.868;2022-12-07T18:22:55;2.20;99.90
5172;DHT22;2605;49.770;9.868;2022-12-07T18:25:21;2.10;99.90
5172;DHT22;2605;49.770;9.868;2022-12-07T18:27:47;2.00;99.90
5172;DHT22;2605;49.770;9.868;2022-12-07T18:30:12;2.00;99.90
5172;DHT22;2605;49.770;9.868;2022-12-07T18:32:38;2.00;99.90
5172;DHT22;2605;49.770;9.868;2022-12-07T18:35:04;2.10;99.90
5172;DHT22;2605;49.770;9.868;2022-12-07T18:37:32;2.10;99.90
5172;DHT22;2605;49.770;9.868;2022-12-07T18:39:58;2.20;99.90
5172;DHT22;2605;49.770;9.868;2022-12-07T18:42:24;2.30;99.90
5172;DHT22;2605;49.770;9.868;2022-12-07T18:44:49;2.30;99.90
5172;DHT22;2605;49.770;9.868;2022-12-07T18:47:15;2.30;99.90
5172;DHT22;2605;49.770;9.868;2022-12-07T18:49:40;2.30;99.90
5172;DHT22;2605;49.770;9.868;2022-12-07T18:52:06;2.30;99.90